sensor_id;sensor_type;location;lat;lon;timestamp;P1;durP1;ratioP1;P2;durP2;ratioP2
64868;SDS011;51349;52.424;10.840;2024-01-15T00:01:56;13.33;;;8.97;;
64868;SDS011;51349;52.424;10.840;2024-01-15T00:06:56;15.37;;;8.53;;
64868;SDS011;51349;52.424;10.840;2024-01-15T00:11:57;11.13;;;7.10;;
64868;SDS011;51349;52.424;10.840;2024-01-15T00:16:59;13.30;;;8.63;;
64868;SDS011;51349;52.424;10.840;2024-01-15T00:22:00;11.73;;;8.37;;
64868;SDS011;51349;52.424;10.840;2024-01-15T00:27:00;10.17;;;7.43;;
64868;SDS011;51349;52.424;10.840;2024-01-15T00:32:01;9.67;;;7.27;;
64868;SDS011;51349;52.424;10.840;2024-01-15T00:37:02;11.40;;;7.50;;
64868;SDS011;51349;52.424;10.840;2024-01-15T00:42:03;9.90;;;7.53;;
64868;SDS011;51349;52.424;10.840;2024-01-15T00:47:04;9.57;;;6.43;;
64868;SDS011;51349;52.424;10.840;2024-01-15T00:52:05;10.00;;;6.97;;
64868;SDS011;51349;52.424;10.840;2024-01-15T00:57:06;10.30;;;6.87;;
64868;SDS011;51349;52.424;10.840;2024-01-15T01:02:07;7.50;;;6.10;;
64868;SDS011;51349;52.424;10.840;2024-01-15T01:07:07;6.10;;;5.00;;
64868;SDS011;51349;52.424;10.840;2024-01-15T01:12:08;7.03;;;5.70;;
64868;SDS011;51349;52.424;10.840;2024-01-15T01:17:09;6.37;;;4.43;;
64868;SDS011;51349;52.424;10.840;2024-01-15T01:22:10;5.57;;;4.67;;
64868;SDS011;51349;52.424;10.840;2024-01-15T01:27:10;8.17;;;5.67;;
64868;SDS011;51349;52.424;10.840;2024-01-15T01:32:11;6.40;;;4.40;;
64868;SDS011;51349;52.424;10.840;2024-01-15T01:37:12;7.23;;;5.17;;
64868;SDS011;51349;52.424;10.840;2024-01-15T01:42:14;9.00;;;4.90;;
64868;SDS011;51349;52.424;10.840;2024-01-15T01:47:15;9.70;;;5.10;;
64868;SDS011;51349;52.424;10.840;2024-01-15T01:52:16;5.97;;;4.13;;
64868;SDS011;51349;52.424;10.840;2024-01-15T01:57:17;8.67;;;4.07;;
64868;SDS011;51349;52.424;10.840;2024-01-15T02:02:18;6.57;;;3.93;;
64868;SDS011;51349;52.424;10.840;2024-01-15T02:07:21;5.17;;;3.67;;
64868;SDS011;51349;52.424;10.840;2024-01-15T02:12:22;5.93;;;4.20;;
64868;SDS011;51349;52.424;10.840;2024-01-15T02:17:23;7.87;;;4.13;;
64868;SDS011;51349;52.424;10.840;2024-01-15T02:22:24;4.40;;;3.13;;
64868;SDS011;51349;52.424;10.840;2024-01-15T02:27:25;4.93;;;3.90;;
64868;SDS011;51349;52.424;10.840;2024-01-15T02:32:25;6.43;;;3.90;;
64868;SDS011;51349;52.424;10.840;2024-01-15T02:37:26;5.93;;;2.97;;
64868;SDS011;51349;52.424;10.840;2024-01-15T02:42:27;6.30;;;3.30;;
64868;SDS011;51349;52.424;10.840;2024-01-15T02:47:28;5.30;;;2.87;;
64868;SDS011;51349;52.424;10.840;2024-01-15T02:52:29;4.33;;;2.63;;
64868;SDS011;51349;52.424;10.840;2024-01-15T02:57:29;6.90;;;3.00;;
64868;SDS011;51349;52.424;10.840;2024-01-15T03:02:30;3.97;;;2.60;;
64868;SDS011;51349;52.424;10.840;2024-01-15T03:07:34;7.00;;;2.40;;
64868;SDS011;51349;52.424;10.840;2024-01-15T03:12:35;5.10;;;2.60;;
64868;SDS011;51349;52.424;10.840;2024-01-15T03:17:36;7.23;;;2.60;;
64868;SDS011;51349;52.424;10.840;2024-01-15T03:22:36;5.77;;;2.50;;
64868;SDS011;51349;52.424;10.840;2024-01-15T03:27:37;5.03;;;2.43;;
64868;SDS011;51349;52.424;10.840;2024-01-15T03:32:38;7.23;;;2.17;;
64868;SDS011;51349;52.424;10.840;2024-01-15T03:37:39;6.57;;;2.13;;
64868;SDS011;51349;52.424;10.840;2024-01-15T03:42:39;7.43;;;2.13;;
64868;SDS011;51349;52.424;10.840;2024-01-15T03:47:40;3.80;;;1.77;;
64868;SDS011;51349;52.424;10.840;2024-01-15T03:52:41;6.33;;;2.20;;
64868;SDS011;51349;52.424;10.840;2024-01-15T03:57:42;7.57;;;1.90;;
64868;SDS011;51349;52.424;10.840;2024-01-15T04:02:43;4.87;;;2.17;;
64868;SDS011;51349;52.424;10.840;2024-01-15T04:07:44;3.43;;;1.57;;
64868;SDS011;51349;52.424;10.840;2024-01-15T04:12:45;3.73;;;1.53;;
64868;SDS011;51349;52.424;10.840;2024-01-15T04:17:48;4.47;;;2.17;;
64868;SDS011;51349;52.424;10.840;2024-01-15T04:22:49;4.63;;;1.87;;
64868;SDS011;51349;52.424;10.840;2024-01-15T04:27:50;5.03;;;1.60;;
64868;SDS011;51349;52.424;10.840;2024-01-15T04:32:50;5.43;;;2.00;;
64868;SDS011;51349;52.424;10.840;2024-01-15T04:37:51;2.80;;;1.60;;
64868;SDS011;51349;52.424;10.840;2024-01-15T04:42:53;4.50;;;1.63;;
64868;SDS011;51349;52.424;10.840;2024-01-15T04:47:54;4.87;;;1.70;;
64868;SDS011;51349;52.424;10.840;2024-01-15T04:52:58;4.30;;;2.00;;
64868;SDS011;51349;52.424;10.840;2024-01-15T04:57:59;4.17;;;2.00;;
64868;SDS011;51349;52.424;10.840;2024-01-15T05:02:59;2.83;;;1.13;;
64868;SDS011;51349;52.424;10.840;2024-01-15T05:08:00;3.37;;;1.90;;
64868;SDS011;51349;52.424;10.840;2024-01-15T05:13:01;3.80;;;2.07;;
64868;SDS011;51349;52.424;10.840;2024-01-15T05:18:02;2.33;;;1.47;;
64868;SDS011;51349;52.424;10.840;2024-01-15T05:23:03;6.27;;;2.00;;
64868;SDS011;51349;52.424;10.840;2024-01-15T05:28:04;4.30;;;1.60;;
64868;SDS011;51349;52.424;10.840;2024-01-15T05:33:05;6.30;;;2.00;;
64868;SDS011;51349;52.424;10.840;2024-01-15T05:38:07;4.23;;;1.63;;
64868;SDS011;51349;52.424;10.840;2024-01-15T05:43:08;4.87;;;1.60;;
64868;SDS011;51349;52.424;10.840;2024-01-15T05:48:08;4.60;;;1.90;;
64868;SDS011;51349;52.424;10.840;2024-01-15T05:53:09;1.87;;;1.50;;
64868;SDS011;51349;52.424;10.840;2024-01-15T05:58:10;5.33;;;1.97;;
64868;SDS011;51349;52.424;10.840;2024-01-15T06:03:11;6.27;;;1.60;;
64868;SDS011;51349;52.424;10.840;2024-01-15T06:08:12;2.93;;;1.13;;
64868;SDS011;51349;52.424;10.840;2024-01-15T06:13:14;4.70;;;2.00;;
64868;SDS011;51349;52.424;10.840;2024-01-15T06:18:15;3.10;;;1.57;;
64868;SDS011;51349;52.424;10.840;2024-01-15T06:23:16;6.27;;;1.90;;
64868;SDS011;51349;52.424;10.840;2024-01-15T06:28:16;1.30;;;1.20;;
64868;SDS011;51349;52.424;10.840;2024-01-15T06:33:17;4.23;;;2.03;;
64868;SDS011;51349;52.424;10.840;2024-01-15T06:38:18;4.20;;;1.70;;
64868;SDS011;51349;52.424;10.840;2024-01-15T06:43:19;6.33;;;1.90;;
64868;SDS011;51349;52.424;10.840;2024-01-15T06:48:20;2.33;;;1.53;;
64868;SDS011;51349;52.424;10.840;2024-01-15T06:53:20;3.17;;;1.70;;
64868;SDS011;51349;52.424;10.840;2024-01-15T06:58:21;3.80;;;1.70;;
64868;SDS011;51349;52.424;10.840;2024-01-15T07:03:22;3.20;;;1.20;;
64868;SDS011;51349;52.424;10.840;2024-01-15T07:08:23;2.90;;;1.07;;
64868;SDS011;51349;52.424;10.840;2024-01-15T07:13:24;2.67;;;2.10;;
64868;SDS011;51349;52.424;10.840;2024-01-15T07:18:25;2.50;;;1.77;;
64868;SDS011;51349;52.424;10.840;2024-01-15T07:23:47;1.60;;;1.50;;
64868;SDS011;51349;52.424;10.840;2024-01-15T07:28:55;6.40;;;2.37;;
64868;SDS011;51349;52.424;10.840;2024-01-15T07:34:03;4.27;;;2.33;;
64868;SDS011;51349;52.424;10.840;2024-01-15T07:39:05;5.87;;;3.50;;
64868;SDS011;51349;52.424;10.840;2024-01-15T07:44:08;6.23;;;5.30;;
64868;SDS011;51349;52.424;10.840;2024-01-15T07:49:11;6.13;;;4.00;;
64868;SDS011;51349;52.424;10.840;2024-01-15T07:54:13;5.10;;;3.20;;
64868;SDS011;51349;52.424;10.840;2024-01-15T07:59:18;34.50;;;16.53;;
64868;SDS011;51349;52.424;10.840;2024-01-15T08:04:19;14.00;;;7.33;;
64868;SDS011;51349;52.424;10.840;2024-01-15T08:09:20;3.27;;;2.93;;
64868;SDS011;51349;52.424;10.840;2024-01-15T08:14:22;7.23;;;2.70;;
64868;SDS011;51349;52.424;10.840;2024-01-15T08:19:23;5.40;;;3.03;;
64868;SDS011;51349;52.424;10.840;2024-01-15T08:24:30;3.90;;;2.40;;
64868;SDS011;51349;52.424;10.840;2024-01-15T08:29:31;5.40;;;2.97;;
64868;SDS011;51349;52.424;10.840;2024-01-15T08:34:34;6.70;;;3.23;;
64868;SDS011;51349;52.424;10.840;2024-01-15T08:39:38;6.03;;;2.43;;
64868;SDS011;51349;52.424;10.840;2024-01-15T08:44:40;6.90;;;2.60;;
64868;SDS011;51349;52.424;10.840;2024-01-15T08:49:43;7.80;;;3.60;;
64868;SDS011;51349;52.424;10.840;2024-01-15T08:54:45;3.80;;;2.47;;
64868;SDS011;51349;52.424;10.840;2024-01-15T08:59:46;6.00;;;3.00;;
64868;SDS011;51349;52.424;10.840;2024-01-15T09:04:47;5.03;;;3.20;;
64868;SDS011;51349;52.424;10.840;2024-01-15T09:09:48;4.80;;;4.07;;
64868;SDS011;51349;52.424;10.840;2024-01-15T09:14:48;7.17;;;3.60;;
64868;SDS011;51349;52.424;10.840;2024-01-15T09:19:50;4.63;;;3.63;;
64868;SDS011;51349;52.424;10.840;2024-01-15T09:24:58;5.00;;;3.90;;
64868;SDS011;51349;52.424;10.840;2024-01-15T09:29:59;4.93;;;3.00;;
64868;SDS011;51349;52.424;10.840;2024-01-15T09:35:00;3.47;;;3.17;;
64868;SDS011;51349;52.424;10.840;2024-01-15T09:40:01;3.70;;;3.40;;
64868;SDS011;51349;52.424;10.840;2024-01-15T09:45:02;6.10;;;3.77;;
64868;SDS011;51349;52.424;10.840;2024-01-15T09:50:04;7.70;;;5.90;;
64868;SDS011;51349;52.424;10.840;2024-01-15T09:55:05;7.70;;;4.87;;
64868;SDS011;51349;52.424;10.840;2024-01-15T10:00:08;5.20;;;4.47;;
64868;SDS011;51349;52.424;10.840;2024-01-15T10:05:11;4.43;;;4.03;;
64868;SDS011;51349;52.424;10.840;2024-01-15T10:10:12;4.80;;;4.10;;
64868;SDS011;51349;52.424;10.840;2024-01-15T10:15:13;5.87;;;5.23;;
64868;SDS011;51349;52.424;10.840;2024-01-15T10:20:14;6.30;;;4.97;;
64868;SDS011;51349;52.424;10.840;2024-01-15T10:25:14;7.07;;;4.13;;
64868;SDS011;51349;52.424;10.840;2024-01-15T10:30:16;6.63;;;3.77;;
64868;SDS011;51349;52.424;10.840;2024-01-15T10:35:17;4.97;;;3.63;;
64868;SDS011;51349;52.424;10.840;2024-01-15T10:40:22;7.90;;;4.50;;
64868;SDS011;51349;52.424;10.840;2024-01-15T10:45:23;9.23;;;3.87;;
64868;SDS011;51349;52.424;10.840;2024-01-15T10:50:24;5.80;;;4.33;;
64868;SDS011;51349;52.424;10.840;2024-01-15T10:55:25;7.40;;;4.17;;
64868;SDS011;51349;52.424;10.840;2024-01-15T11:00:27;9.10;;;3.93;;
64868;SDS011;51349;52.424;10.840;2024-01-15T11:05:28;4.53;;;3.00;;
64868;SDS011;51349;52.424;10.840;2024-01-15T11:41:49;5.23;;;3.87;;
64868;SDS011;51349;52.424;10.840;2024-01-15T11:46:57;3.53;;;2.90;;
64868;SDS011;51349;52.424;10.840;2024-01-15T11:52:00;4.60;;;4.20;;
64868;SDS011;51349;52.424;10.840;2024-01-15T11:57:03;7.83;;;4.50;;
64868;SDS011;51349;52.424;10.840;2024-01-15T12:02:10;5.00;;;3.93;;
64868;SDS011;51349;52.424;10.840;2024-01-15T12:07:13;6.23;;;3.57;;
64868;SDS011;51349;52.424;10.840;2024-01-15T12:17:54;6.43;;;2.70;;
64868;SDS011;51349;52.424;10.840;2024-01-15T12:23:02;6.03;;;2.53;;
64868;SDS011;51349;52.424;10.840;2024-01-15T12:28:04;3.83;;;2.40;;
64868;SDS011;51349;52.424;10.840;2024-01-15T12:33:06;3.13;;;1.73;;
64868;SDS011;51349;52.424;10.840;2024-01-15T12:38:08;4.00;;;2.43;;
64868;SDS011;51349;52.424;10.840;2024-01-15T12:43:11;3.73;;;2.57;;
64868;SDS011;51349;52.424;10.840;2024-01-15T12:48:12;7.10;;;2.13;;
64868;SDS011;51349;52.424;10.840;2024-01-15T12:53:18;3.63;;;2.40;;
64868;SDS011;51349;52.424;10.840;2024-01-15T12:58:42;3.97;;;2.33;;
64868;SDS011;51349;52.424;10.840;2024-01-15T13:03:44;3.57;;;1.90;;
64868;SDS011;51349;52.424;10.840;2024-01-15T13:08:45;4.57;;;2.60;;
64868;SDS011;51349;52.424;10.840;2024-01-15T13:13:47;5.03;;;2.90;;
64868;SDS011;51349;52.424;10.840;2024-01-15T13:18:48;4.57;;;2.37;;
64868;SDS011;51349;52.424;10.840;2024-01-15T13:23:52;5.43;;;2.60;;
64868;SDS011;51349;52.424;10.840;2024-01-15T13:28:54;4.50;;;2.53;;
64868;SDS011;51349;52.424;10.840;2024-01-15T13:33:55;3.67;;;2.43;;
64868;SDS011;51349;52.424;10.840;2024-01-15T13:38:59;6.60;;;2.30;;
64868;SDS011;51349;52.424;10.840;2024-01-15T13:44:09;5.40;;;2.40;;
64868;SDS011;51349;52.424;10.840;2024-01-15T13:49:12;5.70;;;2.80;;
64868;SDS011;51349;52.424;10.840;2024-01-15T13:54:14;6.20;;;4.93;;
64868;SDS011;51349;52.424;10.840;2024-01-15T13:59:16;6.43;;;3.43;;
64868;SDS011;51349;52.424;10.840;2024-01-15T14:04:20;3.20;;;2.13;;
64868;SDS011;51349;52.424;10.840;2024-01-15T14:09:29;4.70;;;2.80;;
64868;SDS011;51349;52.424;10.840;2024-01-15T14:14:34;5.23;;;2.50;;
64868;SDS011;51349;52.424;10.840;2024-01-15T14:19:40;8.67;;;5.47;;
64868;SDS011;51349;52.424;10.840;2024-01-15T14:24:48;7.87;;;5.83;;
64868;SDS011;51349;52.424;10.840;2024-01-15T14:29:49;4.30;;;1.60;;
64868;SDS011;51349;52.424;10.840;2024-01-15T14:34:50;3.97;;;2.27;;
64868;SDS011;51349;52.424;10.840;2024-01-15T14:40:07;3.73;;;2.07;;
64868;SDS011;51349;52.424;10.840;2024-01-15T14:45:10;3.97;;;1.80;;
64868;SDS011;51349;52.424;10.840;2024-01-15T14:50:13;2.40;;;1.70;;
64868;SDS011;51349;52.424;10.840;2024-01-15T14:55:14;3.60;;;1.70;;
64868;SDS011;51349;52.424;10.840;2024-01-15T15:00:18;2.43;;;1.77;;
64868;SDS011;51349;52.424;10.840;2024-01-15T15:05:19;7.43;;;2.30;;
64868;SDS011;51349;52.424;10.840;2024-01-15T15:10:22;7.80;;;2.53;;
64868;SDS011;51349;52.424;10.840;2024-01-15T15:15:24;9.83;;;5.80;;
64868;SDS011;51349;52.424;10.840;2024-01-15T15:20:48;11.83;;;5.43;;
64868;SDS011;51349;52.424;10.840;2024-01-15T15:26:08;4.77;;;3.20;;
64868;SDS011;51349;52.424;10.840;2024-01-15T15:31:09;9.03;;;2.90;;
64868;SDS011;51349;52.424;10.840;2024-01-15T15:36:14;4.77;;;2.00;;
64868;SDS011;51349;52.424;10.840;2024-01-15T15:41:15;5.13;;;2.70;;
64868;SDS011;51349;52.424;10.840;2024-01-15T15:46:16;4.87;;;2.90;;
64868;SDS011;51349;52.424;10.840;2024-01-15T15:51:23;4.50;;;2.90;;
64868;SDS011;51349;52.424;10.840;2024-01-15T15:56:30;4.27;;;2.70;;
64868;SDS011;51349;52.424;10.840;2024-01-15T16:01:42;2.60;;;2.40;;
64868;SDS011;51349;52.424;10.840;2024-01-15T16:06:43;4.20;;;3.80;;
64868;SDS011;51349;52.424;10.840;2024-01-15T16:11:50;5.70;;;2.80;;
64868;SDS011;51349;52.424;10.840;2024-01-15T16:16:58;5.37;;;3.40;;
64868;SDS011;51349;52.424;10.840;2024-01-15T16:22:05;4.00;;;3.07;;
64868;SDS011;51349;52.424;10.840;2024-01-15T16:27:06;3.77;;;2.80;;
64868;SDS011;51349;52.424;10.840;2024-01-15T16:32:09;6.13;;;3.23;;
64868;SDS011;51349;52.424;10.840;2024-01-15T16:37:18;4.07;;;3.67;;
64868;SDS011;51349;52.424;10.840;2024-01-15T16:42:25;5.27;;;4.23;;
64868;SDS011;51349;52.424;10.840;2024-01-15T16:47:29;5.67;;;4.83;;
64868;SDS011;51349;52.424;10.840;2024-01-15T16:52:30;7.70;;;5.27;;
64868;SDS011;51349;52.424;10.840;2024-01-15T16:57:40;6.30;;;5.70;;
64868;SDS011;51349;52.424;10.840;2024-01-15T17:02:41;8.60;;;5.90;;
64868;SDS011;51349;52.424;10.840;2024-01-15T17:07:42;7.17;;;5.80;;
64868;SDS011;51349;52.424;10.840;2024-01-15T17:12:43;7.30;;;5.80;;
64868;SDS011;51349;52.424;10.840;2024-01-15T17:17:44;6.60;;;6.00;;
64868;SDS011;51349;52.424;10.840;2024-01-15T17:22:48;2.60;;;2.40;;
64868;SDS011;51349;52.424;10.840;2024-01-15T17:27:49;3.87;;;3.30;;
64868;SDS011;51349;52.424;10.840;2024-01-15T17:32:50;3.77;;;3.30;;
64868;SDS011;51349;52.424;10.840;2024-01-15T17:37:50;2.93;;;2.73;;
64868;SDS011;51349;52.424;10.840;2024-01-15T17:42:51;3.97;;;2.87;;
64868;SDS011;51349;52.424;10.840;2024-01-15T17:47:52;2.50;;;2.30;;
64868;SDS011;51349;52.424;10.840;2024-01-15T17:52:52;2.97;;;2.73;;
64868;SDS011;51349;52.424;10.840;2024-01-15T17:57:53;2.87;;;2.67;;
64868;SDS011;51349;52.424;10.840;2024-01-15T18:02:55;3.17;;;2.83;;
64868;SDS011;51349;52.424;10.840;2024-01-15T18:07:56;3.73;;;3.23;;
64868;SDS011;51349;52.424;10.840;2024-01-15T18:12:56;3.10;;;2.80;;
64868;SDS011;51349;52.424;10.840;2024-01-15T18:17:58;3.33;;;3.00;;
64868;SDS011;51349;52.424;10.840;2024-01-15T18:22:59;3.87;;;3.53;;
64868;SDS011;51349;52.424;10.840;2024-01-15T18:27:59;5.10;;;4.00;;
64868;SDS011;51349;52.424;10.840;2024-01-15T18:33:00;4.10;;;3.60;;
64868;SDS011;51349;52.424;10.840;2024-01-15T18:38:01;4.70;;;4.00;;
64868;SDS011;51349;52.424;10.840;2024-01-15T18:43:02;4.70;;;4.20;;
64868;SDS011;51349;52.424;10.840;2024-01-15T18:48:02;6.03;;;4.37;;
64868;SDS011;51349;52.424;10.840;2024-01-15T18:53:03;5.07;;;3.83;;
64868;SDS011;51349;52.424;10.840;2024-01-15T18:58:04;5.13;;;4.20;;
64868;SDS011;51349;52.424;10.840;2024-01-15T19:03:05;4.63;;;3.87;;
64868;SDS011;51349;52.424;10.840;2024-01-15T19:08:06;6.53;;;3.90;;
64868;SDS011;51349;52.424;10.840;2024-01-15T19:13:07;4.87;;;3.90;;
64868;SDS011;51349;52.424;10.840;2024-01-15T19:18:10;6.23;;;4.00;;
64868;SDS011;51349;52.424;10.840;2024-01-15T19:23:11;3.40;;;3.10;;
64868;SDS011;51349;52.424;10.840;2024-01-15T19:28:14;3.97;;;3.57;;
64868;SDS011;51349;52.424;10.840;2024-01-15T19:33:15;3.43;;;3.03;;
64868;SDS011;51349;52.424;10.840;2024-01-15T19:38:16;4.07;;;3.30;;
64868;SDS011;51349;52.424;10.840;2024-01-15T19:43:17;3.53;;;3.20;;
64868;SDS011;51349;52.424;10.840;2024-01-15T19:48:18;4.73;;;2.77;;
64868;SDS011;51349;52.424;10.840;2024-01-15T19:53:20;2.90;;;2.70;;
64868;SDS011;51349;52.424;10.840;2024-01-15T19:58:21;3.37;;;2.80;;
64868;SDS011;51349;52.424;10.840;2024-01-15T20:03:22;4.33;;;2.93;;
64868;SDS011;51349;52.424;10.840;2024-01-15T20:08:23;4.87;;;2.50;;
64868;SDS011;51349;52.424;10.840;2024-01-15T20:13:23;3.40;;;2.60;;
64868;SDS011;51349;52.424;10.840;2024-01-15T20:18:26;5.03;;;2.57;;
64868;SDS011;51349;52.424;10.840;2024-01-15T20:23:26;3.03;;;2.50;;
64868;SDS011;51349;52.424;10.840;2024-01-15T20:28:27;2.03;;;1.83;;
64868;SDS011;51349;52.424;10.840;2024-01-15T20:33:28;4.37;;;2.50;;
64868;SDS011;51349;52.424;10.840;2024-01-15T20:38:30;4.60;;;2.43;;
64868;SDS011;51349;52.424;10.840;2024-01-15T20:43:32;4.87;;;2.70;;
64868;SDS011;51349;52.424;10.840;2024-01-15T20:48:33;3.73;;;3.37;;
64868;SDS011;51349;52.424;10.840;2024-01-15T20:53:34;7.70;;;3.37;;
64868;SDS011;51349;52.424;10.840;2024-01-15T20:58:35;5.63;;;3.13;;
64868;SDS011;51349;52.424;10.840;2024-01-15T21:03:36;4.20;;;3.57;;
64868;SDS011;51349;52.424;10.840;2024-01-15T21:08:38;3.90;;;3.00;;
64868;SDS011;51349;52.424;10.840;2024-01-15T21:13:41;3.20;;;2.90;;
64868;SDS011;51349;52.424;10.840;2024-01-15T21:18:41;4.27;;;3.07;;
64868;SDS011;51349;52.424;10.840;2024-01-15T21:23:42;4.77;;;3.67;;
64868;SDS011;51349;52.424;10.840;2024-01-15T21:28:43;3.33;;;3.03;;
64868;SDS011;51349;52.424;10.840;2024-01-15T21:33:44;4.07;;;3.37;;
64868;SDS011;51349;52.424;10.840;2024-01-15T21:38:45;4.27;;;3.50;;
64868;SDS011;51349;52.424;10.840;2024-01-15T21:43:46;6.13;;;3.67;;
64868;SDS011;51349;52.424;10.840;2024-01-15T21:48:47;3.63;;;2.80;;
64868;SDS011;51349;52.424;10.840;2024-01-15T21:53:48;6.23;;;3.80;;
64868;SDS011;51349;52.424;10.840;2024-01-15T21:58:49;4.53;;;3.80;;
64868;SDS011;51349;52.424;10.840;2024-01-15T22:03:49;6.03;;;3.90;;
64868;SDS011;51349;52.424;10.840;2024-01-15T22:08:52;3.83;;;3.27;;
64868;SDS011;51349;52.424;10.840;2024-01-15T22:13:53;5.43;;;4.20;;
64868;SDS011;51349;52.424;10.840;2024-01-15T22:18:54;3.90;;;3.57;;
64868;SDS011;51349;52.424;10.840;2024-01-15T22:23:55;3.83;;;3.20;;
64868;SDS011;51349;52.424;10.840;2024-01-15T22:28:55;3.47;;;3.17;;
64868;SDS011;51349;52.424;10.840;2024-01-15T22:33:56;4.00;;;3.70;;
64868;SDS011;51349;52.424;10.840;2024-01-15T22:38:57;3.97;;;2.87;;
64868;SDS011;51349;52.424;10.840;2024-01-15T22:43:58;7.20;;;3.67;;
64868;SDS011;51349;52.424;10.840;2024-01-15T22:48:59;3.63;;;3.33;;
64868;SDS011;51349;52.424;10.840;2024-01-15T22:54:00;5.03;;;3.50;;
64868;SDS011;51349;52.424;10.840;2024-01-15T22:59:00;5.87;;;3.30;;
64868;SDS011;51349;52.424;10.840;2024-01-15T23:04:01;2.47;;;1.53;;
64868;SDS011;51349;52.424;10.840;2024-01-15T23:09:02;6.80;;;3.63;;
64868;SDS011;51349;52.424;10.840;2024-01-15T23:14:03;3.97;;;2.67;;
64868;SDS011;51349;52.424;10.840;2024-01-15T23:19:04;2.23;;;2.00;;
64868;SDS011;51349;52.424;10.840;2024-01-15T23:24:05;2.83;;;1.77;;
64868;SDS011;51349;52.424;10.840;2024-01-15T23:29:06;2.07;;;1.90;;
64868;SDS011;51349;52.424;10.840;2024-01-15T23:34:07;2.20;;;1.97;;
64868;SDS011;51349;52.424;10.840;2024-01-15T23:39:08;2.30;;;2.10;;
64868;SDS011;51349;52.424;10.840;2024-01-15T23:44:10;2.27;;;2.00;;
64868;SDS011;51349;52.424;10.840;2024-01-15T23:49:11;2.53;;;2.17;;
64868;SDS011;51349;52.424;10.840;2024-01-15T23:54:13;2.63;;;1.60;;
64868;SDS011;51349;52.424;10.840;2024-01-15T23:59:15;1.73;;;1.63;;
